Why, Arizona
Current Conditions -  °F | °C
As of 3:56 AM on Thursday 18 Dec 2014 (Local Time) from KGXF Reporting Station
Broken Clouds Broken Clouds  
Wind Chill: 45°   Ceiling: 15000
Heat Index: 47°   Visibility: 10mi
Dew Point: 46°   Wind: 5mph
Humidity: 96%   Direction: 350°N
Pressure: 30.1"   Gusts: NA
Location:  32.5298°N, 112.879°W
Report Text: KGXF 181056Z AUTO 35004KT 10SM FEW110 BKN150 09/08 A3010 RMK AO2 SLP190 T00850079
Loading
Personal Weather Stations






























Interactive Weather Map New forecast layout! Learn more

10-Day Weather Forecast

Advertisements
Track Severe Weather on mobile